createdAt,value
2022-11-15T00:00:42.113Z,12.01
2022-11-15T00:03:28.964Z,12.17
2022-11-15T00:06:14.483Z,12.07
2022-11-15T00:09:01.311Z,12.12
2022-11-15T00:11:46.443Z,12.07
2022-11-15T00:14:31.781Z,12.12
2022-11-15T00:17:16.955Z,12.12
2022-11-15T00:20:03.035Z,12.04
2022-11-15T00:22:48.157Z,12.22
2022-11-15T00:25:34.562Z,12.16
2022-11-15T00:28:19.848Z,12.09
2022-11-15T00:31:07.855Z,12.18
2022-11-15T00:33:53.357Z,12.19
2022-11-15T00:36:38.529Z,12.15
2022-11-15T00:39:24.177Z,12.21
2022-11-15T00:42:09.460Z,12.29
2022-11-15T00:44:54.435Z,12.27
2022-11-15T00:47:40.352Z,12.33
2022-11-15T00:50:25.817Z,12.25
2022-11-15T00:53:11.915Z,12.11
2022-11-15T00:55:56.907Z,11.92
2022-11-15T00:58:41.698Z,11.73
2022-11-15T01:01:26.584Z,11.68
2022-11-15T01:04:12.232Z,11.57
2022-11-15T01:07:17.274Z,11.45
2022-11-15T01:10:24.074Z,11.41
2022-11-15T01:13:32.852Z,11.41
2022-11-15T01:16:37.965Z,11.29
2022-11-15T01:19:43.917Z,11.16
2022-11-15T01:22:49.219Z,11.18
2022-11-15T01:25:34.437Z,11.19
2022-11-15T01:28:19.426Z,11.13
2022-11-15T01:31:07.199Z,11.11
2022-11-15T01:33:52.601Z,11.13
2022-11-15T01:36:37.861Z,11.12
2022-11-15T01:39:22.830Z,11.16
2022-11-15T01:42:13.349Z,11.14
2022-11-15T01:44:58.227Z,11.11
2022-11-15T01:47:49.538Z,11.06
2022-11-15T01:50:34.877Z,11.11
2022-11-15T01:53:24.579Z,11.12
2022-11-15T01:56:14.712Z,11.15
2022-11-15T01:59:04.358Z,11.13
2022-11-15T02:01:49.741Z,11.11
2022-11-15T02:04:47.307Z,11.17
2022-11-15T02:07:35.110Z,11.11
2022-11-15T02:10:24.028Z,11.07
2022-11-15T02:13:09.209Z,11.02
2022-11-15T02:16:36.224Z,10.98
2022-11-15T02:19:33.289Z,10.95
2022-11-15T02:22:30.763Z,10.88
2022-11-15T02:25:37.910Z,10.81
2022-11-15T02:28:45.112Z,10.85
2022-11-15T02:31:56.157Z,10.81
2022-11-15T02:35:09.988Z,10.81
2022-11-15T02:38:08.100Z,10.85
2022-11-15T02:41:00.466Z,10.82
2022-11-15T02:43:57.636Z,10.82
2022-11-15T02:47:09.316Z,10.84
2022-11-15T02:49:57.802Z,10.84
2022-11-15T02:52:47.874Z,10.76
2022-11-15T02:55:35.230Z,10.69
2022-11-15T02:58:48.786Z,10.72
2022-11-15T03:01:53.039Z,10.74
2022-11-15T03:04:56.487Z,10.70
2022-11-15T03:08:02.690Z,10.74
2022-11-15T03:11:10.157Z,10.65
2022-11-15T03:14:26.470Z,10.60
2022-11-15T03:17:11.576Z,10.67
2022-11-15T03:20:02.053Z,10.68
2022-11-15T03:22:50.456Z,10.65
2022-11-15T03:25:40.927Z,10.64
2022-11-15T03:28:34.722Z,10.59
2022-11-15T03:31:43.417Z,10.63
2022-11-15T03:34:45.544Z,10.62
2022-11-15T03:37:37.763Z,10.65
2022-11-15T03:40:29.688Z,10.64
2022-11-15T03:43:31.862Z,10.68
2022-11-15T03:46:24.164Z,10.65
2022-11-15T03:49:19.459Z,10.67
2022-11-15T03:52:05.466Z,10.68
2022-11-15T03:54:56.822Z,10.72
2022-11-15T03:57:42.035Z,10.70
2022-11-15T04:00:29.031Z,10.72
2022-11-15T04:03:13.907Z,10.76
2022-11-15T04:05:59.955Z,10.72
2022-11-15T04:08:44.822Z,10.81
2022-11-15T04:11:29.840Z,10.81
2022-11-15T04:14:15.026Z,10.80
2022-11-15T04:17:00.184Z,10.77
2022-11-15T04:20:04.653Z,10.80
2022-11-15T04:23:08.601Z,10.77
2022-11-15T04:25:55.606Z,10.84
2022-11-15T04:29:01.062Z,10.83
2022-11-15T04:31:46.768Z,10.85
2022-11-15T04:34:35.344Z,10.90
2022-11-15T04:37:20.728Z,10.95
2022-11-15T04:40:06.410Z,10.95
2022-11-15T04:42:52.219Z,10.89
2022-11-15T04:45:37.506Z,10.91
2022-11-15T04:48:22.320Z,10.87
2022-11-15T04:51:08.367Z,10.93
2022-11-15T04:53:53.422Z,10.94
2022-11-15T04:56:39.025Z,10.94
2022-11-15T04:59:24.073Z,10.95
2022-11-15T05:02:08.924Z,10.97
2022-11-15T05:04:54.742Z,10.99
2022-11-15T05:07:39.740Z,11.00
2022-11-15T05:10:26.011Z,10.97
2022-11-15T05:13:10.865Z,10.98
2022-11-15T05:15:56.794Z,10.91
2022-11-15T05:18:45.431Z,10.87
2022-11-15T05:21:31.414Z,10.89
2022-11-15T05:24:16.222Z,10.74
2022-11-15T05:27:01.218Z,10.73
2022-11-15T05:29:46.038Z,10.72
2022-11-15T05:32:32.380Z,10.77
2022-11-15T05:35:51.903Z,10.77
2022-11-15T05:38:36.765Z,10.72
2022-11-15T05:41:42.243Z,10.76
2022-11-15T05:44:28.148Z,10.70
2022-11-15T05:47:21.764Z,10.62
2022-11-15T05:50:07.812Z,10.63
2022-11-15T05:52:53.502Z,10.47
2022-11-15T05:55:40.758Z,10.49
2022-11-15T05:58:26.023Z,10.53
2022-11-15T06:01:11.589Z,10.60
2022-11-15T06:03:56.784Z,10.56
2022-11-15T06:06:41.874Z,10.50
2022-11-15T06:09:27.046Z,10.48
2022-11-15T06:12:12.092Z,10.39
2022-11-15T06:14:57.153Z,10.40
2022-11-15T06:17:42.062Z,10.48
2022-11-15T06:20:29.553Z,10.47
2022-11-15T06:23:14.977Z,10.47
2022-11-15T06:26:02.444Z,10.48
2022-11-15T06:28:47.763Z,10.44
2022-11-15T06:31:34.385Z,10.43
2022-11-15T06:34:19.826Z,10.45
2022-11-15T06:37:05.042Z,10.45
2022-11-15T06:39:50.027Z,10.28
2022-11-15T06:42:35.113Z,10.38
2022-11-15T06:45:21.067Z,10.43
2022-11-15T06:48:06.855Z,10.47
2022-11-15T06:50:56.333Z,10.43
2022-11-15T06:53:41.747Z,10.43
2022-11-15T06:56:27.519Z,10.41
2022-11-15T06:59:13.002Z,10.35
2022-11-15T07:01:57.967Z,10.33
2022-11-15T07:04:44.090Z,10.36
2022-11-15T07:07:29.205Z,10.38
2022-11-15T07:10:14.060Z,10.39
2022-11-15T07:12:58.964Z,10.38
2022-11-15T07:15:44.803Z,10.42
2022-11-15T07:18:30.865Z,10.46
2022-11-15T07:21:15.754Z,10.46
2022-11-15T07:24:00.678Z,10.49
2022-11-15T07:26:46.255Z,10.58
2022-11-15T07:29:31.283Z,10.69
2022-11-15T07:32:16.594Z,10.85
2022-11-15T07:35:01.454Z,10.91
2022-11-15T07:37:54.607Z,10.87
2022-11-15T07:40:40.053Z,10.86
2022-11-15T07:43:25.850Z,10.92
2022-11-15T07:46:11.027Z,10.99
2022-11-15T07:48:56.483Z,10.98
2022-11-15T07:51:41.269Z,10.99
2022-11-15T07:54:26.654Z,11.10
2022-11-15T07:57:11.607Z,11.23
2022-11-15T07:59:57.084Z,11.21
2022-11-15T08:02:42.655Z,11.30
2022-11-15T08:05:27.553Z,11.31
2022-11-15T08:08:12.556Z,11.44
2022-11-15T08:11:01.329Z,11.55
2022-11-15T08:13:46.395Z,11.71
2022-11-15T08:16:31.942Z,11.69
2022-11-15T08:19:16.919Z,11.86
2022-11-15T08:22:02.347Z,11.86
2022-11-15T08:24:47.243Z,11.91
2022-11-15T08:27:33.070Z,11.96
2022-11-15T08:30:18.143Z,12.08
2022-11-15T08:33:03.637Z,12.21
2022-11-15T08:35:49.366Z,12.15
2022-11-15T08:38:34.708Z,12.11
2022-11-15T08:41:27.847Z,12.19
2022-11-15T08:44:12.894Z,12.29
2022-11-15T08:46:58.922Z,12.26
2022-11-15T08:49:44.645Z,12.22
2022-11-15T08:52:30.030Z,12.20
2022-11-15T08:55:17.529Z,12.21
2022-11-15T08:58:02.738Z,12.32
2022-11-15T09:00:48.131Z,12.40
2022-11-15T09:03:33.731Z,12.42
2022-11-15T09:06:19.209Z,12.40
2022-11-15T09:09:04.303Z,12.46
2022-11-15T09:11:49.984Z,12.45
2022-11-15T09:14:35.662Z,12.48
2022-11-15T09:17:24.752Z,12.46
2022-11-15T09:20:10.482Z,12.58
2022-11-15T09:23:01.058Z,12.61
2022-11-15T09:25:46.125Z,12.62
2022-11-15T09:28:32.593Z,12.60
2022-11-15T09:31:19.465Z,12.82
2022-11-15T09:34:07.174Z,12.93
2022-11-15T09:36:52.737Z,13.09
2022-11-15T09:39:38.032Z,13.25
2022-11-15T09:42:55.045Z,13.27
2022-11-15T09:45:59.182Z,13.33
2022-11-15T09:49:00.407Z,13.46
2022-11-15T09:51:55.212Z,13.53
2022-11-15T09:54:55.104Z,13.49
2022-11-15T09:57:53.234Z,13.48
2022-11-15T10:00:46.956Z,13.69
2022-11-15T10:03:20.567Z,13.87
2022-11-15T10:05:49.771Z,13.78
2022-11-15T10:08:44.512Z,13.63
2022-11-15T10:14:05.876Z,13.71
2022-11-15T10:17:09.590Z,13.53
2022-11-15T10:20:11.000Z,13.55
2022-11-15T10:22:53.921Z,13.71
2022-11-15T10:25:25.455Z,13.83
2022-11-15T10:28:00.091Z,13.75
2022-11-15T10:30:39.358Z,13.87
2022-11-15T10:33:20.245Z,13.65
2022-11-15T10:35:46.864Z,13.70
2022-11-15T10:38:13.933Z,13.81
2022-11-15T10:40:41.907Z,13.87
2022-11-15T10:43:11.654Z,13.84
2022-11-15T10:45:39.519Z,13.83
2022-11-15T10:48:15.207Z,13.69
2022-11-15T10:50:47.233Z,13.82
2022-11-15T10:53:33.929Z,13.97
2022-11-15T10:56:06.242Z,13.98
2022-11-15T10:58:43.103Z,13.96
2022-11-15T11:01:17.728Z,14.07
2022-11-15T11:03:46.797Z,13.98
2022-11-15T11:06:18.452Z,14.04
2022-11-15T11:09:00.659Z,14.04
2022-11-15T11:11:46.145Z,14.32
2022-11-15T11:14:16.793Z,14.42
2022-11-15T11:16:46.229Z,14.28
2022-11-15T11:19:35.901Z,14.14
2022-11-15T11:22:24.504Z,14.09
2022-11-15T11:25:06.150Z,14.21
2022-11-15T11:27:55.819Z,14.12
2022-11-15T11:30:41.334Z,14.20
2022-11-15T11:33:19.205Z,14.39
2022-11-15T11:35:52.345Z,14.61
2022-11-15T11:38:33.829Z,14.59
2022-11-15T11:41:25.196Z,14.55
2022-11-15T11:44:11.137Z,14.35
2022-11-15T11:46:50.221Z,14.23
2022-11-15T11:49:24.233Z,14.44
2022-11-15T11:52:02.136Z,14.45
2022-11-15T11:54:51.776Z,14.68
2022-11-15T11:57:53.920Z,14.70
2022-11-15T12:00:22.922Z,14.70
2022-11-15T12:03:02.085Z,14.70
2022-11-15T12:05:42.849Z,14.76
2022-11-15T12:08:51.598Z,14.92
2022-11-15T12:12:06.299Z,14.86
2022-11-15T12:15:08.776Z,14.93
2022-11-15T12:17:36.349Z,14.87
2022-11-15T12:20:16.306Z,14.88
2022-11-15T12:22:48.907Z,15.01
2022-11-15T12:25:39.011Z,14.77
2022-11-15T12:28:21.562Z,14.90
2022-11-15T12:30:55.238Z,15.09
2022-11-15T12:33:38.137Z,15.03
2022-11-15T12:36:23.498Z,15.08
2022-11-15T12:39:00.333Z,14.96
2022-11-15T12:41:40.780Z,14.87
2022-11-15T12:44:14.949Z,14.88
2022-11-15T12:46:41.486Z,14.73
2022-11-15T12:49:26.587Z,14.71
2022-11-15T12:51:59.349Z,14.56
2022-11-15T12:54:25.780Z,14.69
2022-11-15T12:57:04.654Z,14.75
2022-11-15T13:00:02.732Z,14.63
2022-11-15T13:02:37.003Z,14.52
2022-11-15T13:05:19.175Z,14.53
2022-11-15T13:07:45.737Z,14.58
2022-11-15T13:10:28.660Z,14.36
2022-11-15T13:12:58.356Z,14.25
2022-11-15T13:15:43.288Z,14.25
2022-11-15T13:18:29.021Z,14.11
2022-11-15T13:21:00.952Z,14.21
2022-11-15T13:23:28.727Z,14.36
2022-11-15T13:26:17.564Z,14.34
2022-11-15T13:28:50.275Z,14.41
2022-11-15T13:31:27.338Z,14.43
2022-11-15T13:33:57.135Z,14.32
2022-11-15T13:36:28.102Z,14.37
2022-11-15T13:39:03.591Z,14.28
2022-11-15T13:41:36.065Z,14.22
2022-11-15T13:44:04.450Z,14.17
2022-11-15T13:46:33.885Z,14.18
2022-11-15T13:49:12.275Z,14.22
2022-11-15T13:51:42.748Z,14.19
2022-11-15T13:54:26.157Z,14.12
2022-11-15T13:57:00.768Z,14.11
2022-11-15T13:59:32.225Z,14.13
2022-11-15T14:02:11.302Z,14.10
2022-11-15T14:04:40.911Z,14.11
2022-11-15T14:07:18.842Z,14.07
2022-11-15T14:09:47.429Z,14.19
2022-11-15T14:12:35.708Z,14.29
2022-11-15T14:15:35.553Z,14.24
2022-11-15T14:18:03.258Z,14.32
2022-11-15T14:20:36.160Z,14.34
2022-11-15T14:23:05.802Z,14.32
2022-11-15T14:25:36.340Z,14.36
2022-11-15T14:28:14.937Z,14.29
2022-11-15T14:30:44.004Z,14.22
2022-11-15T14:33:38.093Z,14.18
2022-11-15T14:36:13.939Z,14.20
2022-11-15T14:38:41.053Z,14.16
2022-11-15T14:41:33.647Z,14.19
2022-11-15T14:44:26.317Z,14.20
2022-11-15T14:46:52.751Z,14.15
2022-11-15T14:49:19.149Z,14.02
2022-11-15T14:51:45.881Z,14.02
2022-11-15T14:54:12.305Z,14.00
2022-11-15T14:56:38.708Z,13.99
2022-11-15T14:59:05.226Z,14.05
2022-11-15T15:01:31.942Z,13.92
2022-11-15T15:03:59.362Z,13.93
2022-11-15T15:06:26.733Z,13.95
2022-11-15T15:08:53.166Z,13.93
2022-11-15T15:11:25.161Z,13.90
2022-11-15T15:13:53.234Z,13.84
2022-11-15T15:16:20.647Z,13.83
2022-11-15T15:18:47.763Z,13.79
2022-11-15T15:21:21.934Z,13.71
2022-11-15T15:23:48.735Z,13.60
2022-11-15T15:26:15.299Z,13.59
2022-11-15T15:28:42.156Z,13.57
2022-11-15T15:31:10.297Z,13.52
2022-11-15T15:33:37.193Z,13.55
2022-11-15T15:36:04.028Z,13.50
2022-11-15T15:38:31.048Z,13.46
2022-11-15T15:40:57.867Z,13.46
2022-11-15T15:43:24.496Z,13.42
2022-11-15T15:45:50.949Z,13.42
2022-11-15T15:48:17.932Z,13.45
2022-11-15T15:50:44.704Z,13.36
2022-11-15T15:53:12.996Z,13.36
2022-11-15T15:55:40.359Z,13.33
2022-11-15T15:58:08.950Z,13.37
2022-11-15T16:00:35.401Z,13.42
2022-11-15T16:03:02.233Z,13.35
2022-11-15T16:05:29.114Z,13.30
2022-11-15T16:07:55.586Z,13.27
2022-11-15T16:10:30.692Z,13.24
2022-11-15T16:12:58.456Z,13.29
2022-11-15T16:15:27.372Z,13.28
2022-11-15T16:17:58.753Z,13.23
2022-11-15T16:20:34.371Z,13.22
2022-11-15T16:23:07.223Z,13.22
2022-11-15T16:25:42.404Z,13.21
2022-11-15T16:28:24.077Z,13.19
2022-11-15T16:31:03.689Z,13.20
2022-11-15T16:33:30.676Z,13.19
2022-11-15T16:35:57.992Z,13.18
2022-11-15T16:38:24.826Z,13.24
2022-11-15T16:40:51.310Z,13.29
2022-11-15T16:43:18.244Z,13.32
2022-11-15T16:45:45.112Z,13.26
2022-11-15T16:48:22.471Z,13.25
2022-11-15T16:50:49.217Z,13.23
2022-11-15T16:53:15.649Z,13.18
2022-11-15T16:55:42.643Z,13.16
2022-11-15T16:58:10.166Z,13.16
2022-11-15T17:00:36.719Z,13.19
2022-11-15T17:03:03.852Z,13.20
2022-11-15T17:05:30.742Z,13.24
2022-11-15T17:07:57.739Z,13.21
2022-11-15T17:10:26.502Z,13.24
2022-11-15T17:12:55.662Z,13.23
2022-11-15T17:15:24.411Z,13.22
2022-11-15T17:17:53.400Z,13.22
2022-11-15T17:20:23.343Z,13.18
2022-11-15T17:22:50.360Z,13.18
2022-11-15T17:25:17.807Z,13.18
2022-11-15T17:27:44.637Z,13.15
2022-11-15T17:30:15.302Z,13.17
2022-11-15T17:32:43.235Z,13.19
2022-11-15T17:35:15.574Z,13.22
2022-11-15T17:37:43.195Z,13.23
2022-11-15T17:40:10.164Z,13.23
2022-11-15T17:42:37.408Z,13.18
2022-11-15T17:45:09.292Z,13.15
2022-11-15T17:47:36.920Z,13.15
2022-11-15T17:50:03.899Z,13.16
2022-11-15T17:53:01.789Z,13.23
2022-11-15T17:55:28.700Z,13.15
2022-11-15T17:57:55.132Z,13.14
2022-11-15T18:00:21.643Z,13.17
2022-11-15T18:02:48.096Z,13.19
2022-11-15T18:05:15.245Z,13.21
2022-11-15T18:07:41.711Z,13.21
2022-11-15T18:10:08.710Z,13.27
2022-11-15T18:12:35.138Z,13.23
2022-11-15T18:15:01.787Z,13.27
2022-11-15T18:17:28.658Z,13.29
2022-11-15T18:19:55.050Z,13.29
2022-11-15T18:22:22.016Z,13.30
2022-11-15T18:24:48.421Z,13.29
2022-11-15T18:27:14.814Z,13.34
2022-11-15T18:29:41.209Z,13.37
2022-11-15T18:32:12.302Z,13.40
2022-11-15T18:34:39.107Z,13.38
2022-11-15T18:37:05.979Z,13.37
2022-11-15T18:39:32.843Z,13.40
2022-11-15T18:41:59.788Z,13.37
2022-11-15T18:44:28.721Z,13.42
2022-11-15T18:46:55.659Z,13.40
2022-11-15T18:49:22.565Z,13.38
2022-11-15T18:51:49.482Z,13.37
2022-11-15T18:54:17.406Z,13.43
2022-11-15T18:56:45.576Z,13.40
2022-11-15T18:59:13.001Z,13.41
2022-11-15T19:01:42.167Z,13.41
2022-11-15T19:04:18.326Z,13.44
2022-11-15T19:06:47.513Z,13.42
2022-11-15T19:09:16.258Z,13.44
2022-11-15T19:11:44.592Z,13.43
2022-11-15T19:14:14.131Z,13.41
2022-11-15T19:16:46.553Z,13.40
2022-11-15T19:19:15.958Z,13.43
2022-11-15T19:21:43.383Z,13.36
2022-11-15T19:24:10.628Z,13.35
2022-11-15T19:26:38.800Z,13.34
2022-11-15T19:29:07.321Z,13.35
2022-11-15T19:31:34.033Z,13.36
2022-11-15T19:34:04.395Z,13.35
2022-11-15T19:36:35.011Z,13.32
2022-11-15T19:39:05.462Z,13.33
2022-11-15T19:41:32.481Z,13.29
2022-11-15T19:43:59.259Z,13.28
2022-11-15T19:46:27.077Z,13.30
2022-11-15T19:48:54.153Z,13.31
2022-11-15T19:51:23.154Z,13.23
2022-11-15T19:53:52.691Z,13.24
2022-11-15T19:56:20.083Z,13.28
2022-11-15T19:58:50.939Z,13.23
2022-11-15T20:01:18.688Z,13.18
2022-11-15T20:03:46.651Z,13.22
2022-11-15T20:06:16.525Z,13.20
2022-11-15T20:08:44.577Z,13.21
2022-11-15T20:11:12.525Z,13.17
2022-11-15T20:13:39.552Z,13.19
2022-11-15T20:16:06.880Z,13.18
2022-11-15T20:18:34.386Z,13.18
2022-11-15T20:21:02.647Z,13.20
2022-11-15T20:23:29.179Z,13.17
2022-11-15T20:25:55.639Z,13.21
2022-11-15T20:28:27.643Z,13.21
2022-11-15T20:30:56.802Z,13.19
2022-11-15T20:33:23.972Z,13.15
2022-11-15T20:35:50.725Z,13.10
2022-11-15T20:38:18.914Z,13.12
2022-11-15T20:40:46.214Z,13.12
2022-11-15T20:43:14.668Z,13.06
2022-11-15T20:45:46.429Z,13.07
2022-11-15T20:48:15.965Z,13.00
2022-11-15T20:50:44.712Z,12.94
2022-11-15T20:53:13.095Z,12.97
2022-11-15T20:55:47.808Z,12.89
2022-11-15T20:58:15.476Z,12.89
2022-11-15T21:00:43.197Z,12.86
2022-11-15T21:03:10.245Z,12.86
2022-11-15T21:05:41.686Z,12.85
2022-11-15T21:08:09.400Z,12.79
2022-11-15T21:10:54.478Z,12.75
2022-11-15T21:13:22.062Z,12.78
2022-11-15T21:15:48.575Z,12.76
2022-11-15T21:18:15.521Z,12.76
2022-11-15T21:20:42.977Z,12.67
2022-11-15T21:23:09.598Z,12.59
2022-11-15T21:25:36.257Z,12.63
2022-11-15T21:28:03.070Z,12.61
2022-11-15T21:30:30.002Z,12.61
2022-11-15T21:32:56.471Z,12.63
2022-11-15T21:35:23.755Z,12.59
2022-11-15T21:37:56.107Z,12.60
2022-11-15T21:40:23.026Z,12.57
2022-11-15T21:42:49.589Z,12.60
2022-11-15T21:45:16.080Z,12.61
2022-11-15T21:47:46.108Z,12.62
2022-11-15T21:50:12.903Z,12.62
2022-11-15T21:52:40.892Z,12.68
2022-11-15T21:55:08.496Z,12.69
2022-11-15T21:57:35.168Z,12.70
2022-11-15T22:00:20.637Z,12.66
2022-11-15T22:02:47.064Z,12.63
2022-11-15T22:05:13.511Z,12.68
2022-11-15T22:07:40.680Z,12.67
2022-11-15T22:10:07.560Z,12.64
2022-11-15T22:12:34.277Z,12.67
2022-11-15T22:15:00.739Z,12.64
2022-11-15T22:17:47.421Z,12.74
2022-11-15T22:20:37.772Z,12.67
2022-11-15T22:23:02.081Z,12.65
2022-11-15T22:25:28.952Z,12.63
2022-11-15T22:27:56.177Z,12.62
2022-11-15T22:30:23.433Z,12.56
2022-11-15T22:32:49.921Z,12.54
2022-11-15T22:35:16.691Z,12.51
2022-11-15T22:37:44.327Z,12.53
2022-11-15T22:40:11.153Z,12.47
2022-11-15T22:42:37.881Z,12.39
2022-11-15T22:45:05.057Z,12.41
2022-11-15T22:47:32.030Z,12.37
2022-11-15T22:49:58.555Z,12.38
2022-11-15T22:52:25.292Z,12.29
2022-11-15T22:54:51.805Z,12.20
2022-11-15T22:57:18.665Z,12.18
2022-11-15T22:59:45.786Z,12.14
2022-11-15T23:02:12.366Z,12.07
2022-11-15T23:04:38.880Z,11.98
2022-11-15T23:07:05.443Z,11.97
2022-11-15T23:09:32.229Z,11.90
2022-11-15T23:12:17.696Z,11.92
2022-11-15T23:14:44.239Z,11.94
2022-11-15T23:17:11.476Z,11.89
2022-11-15T23:19:37.906Z,11.90
2022-11-15T23:22:23.817Z,11.90
2022-11-15T23:24:52.675Z,11.86
2022-11-15T23:27:20.811Z,11.82
2022-11-15T23:30:06.433Z,11.87
2022-11-15T23:32:51.877Z,11.85
2022-11-15T23:35:18.495Z,11.84
2022-11-15T23:37:45.255Z,11.87
2022-11-15T23:40:12.489Z,11.82
2022-11-15T23:42:38.994Z,11.84
2022-11-15T23:45:06.738Z,11.84
2022-11-15T23:47:33.221Z,11.89
2022-11-15T23:49:59.717Z,11.82
2022-11-15T23:52:26.305Z,11.83
2022-11-15T23:54:52.990Z,11.87
2022-11-15T23:57:19.960Z,11.81
2022-11-15T23:59:46.464Z,11.78
